Time;durP1;ratioP1;P1;durP2;ratioP2;P2;SDS_P1;SDS_P2;PMS_P1;PMS_P2;Temp;Humidity;BMP_temperature;BMP_pressure;BME280_temperature;BME280_humidity;BME280_pressure;Samples;Min_cycle;Max_cycle;Signal;HPM_P1;HPM_P2
2023/10/01 00:00:06;;;;;;;12.15;5.63;;;5.50;99.90;;;;;;5081579;28;20027;-86
2023/10/01 00:02:32;;;;;;;10.63;5.28;;;5.40;99.90;;;;;;5080367;28;20013;-80
2023/10/01 00:04:59;;;;;;;4.63;4.20;;;5.40;99.90;;;;;;5082645;28;20040;-80
2023/10/01 00:07:26;;;;;;;7.32;4.35;;;5.30;99.90;;;;;;5092980;28;20016;-86
2023/10/01 00:09:52;;;;;;;9.15;5.05;;;5.40;99.90;;;;;;5075361;28;20052;-86
2023/10/01 00:12:18;;;;;;;5.03;4.50;;;5.40;99.90;;;;;;5071906;28;20358;-86
2023/10/01 00:14:44;;;;;;;8.25;4.90;;;5.30;99.90;;;;;;5086851;28;20028;-80
2023/10/01 00:17:09;;;;;;;5.75;4.43;;;5.30;99.90;;;;;;5092847;28;20431;-85
2023/10/01 00:19:37;;;;;;;6.15;4.50;;;5.40;99.90;;;;;;5084493;28;20023;-86
2023/10/01 00:22:02;;;;;;;8.63;4.90;;;5.40;99.90;;;;;;5082988;28;20102;-86
2023/10/01 00:24:29;;;;;;;8.20;4.70;;;5.40;99.90;;;;;;5085884;28;20437;-80
2023/10/01 00:26:54;;;;;;;6.93;4.80;;;5.30;99.90;;;;;;5080788;28;20031;-80
2023/10/01 00:29:22;;;;;;;8.45;4.70;;;5.30;99.90;;;;;;5084207;28;20102;-80
2023/10/01 00:31:49;;;;;;;9.30;5.57;;;5.30;99.90;;;;;;5087258;28;20035;-86
2023/10/01 00:34:15;;;;;;;15.80;5.85;;;5.30;99.90;;;;;;5081403;28;20058;-86
2023/10/01 00:36:43;;;;;;;14.95;6.15;;;5.30;99.90;;;;;;5073594;28;20500;-80
2023/10/01 00:39:09;;;;;;;29.00;6.90;;;5.30;99.90;;;;;;5077673;28;20394;-86
2023/10/01 00:41:35;;;;;;;9.10;6.10;;;5.20;99.90;;;;;;5085102;28;20106;-80
2023/10/01 00:44:02;;;;;;;10.13;6.15;;;5.10;99.90;;;;;;5084511;28;20120;-86
2023/10/01 00:46:29;;;;;;;35.00;7.40;;;5.10;99.90;;;;;;5073576;28;20090;-80
2023/10/01 00:48:56;;;;;;;20.05;7.00;;;5.10;99.90;;;;;;5092652;28;20031;-80
2023/10/01 00:51:21;;;;;;;15.43;5.82;;;5.00;99.90;;;;;;5092022;28;20098;-86
2023/10/01 00:53:49;;;;;;;19.20;7.35;;;5.00;99.90;;;;;;5073535;28;20473;-86
2023/10/01 00:56:15;;;;;;;15.65;6.90;;;5.00;99.90;;;;;;5071628;28;20033;-80
2023/10/01 00:58:41;;;;;;;16.05;7.35;;;5.00;99.90;;;;;;5072627;28;20024;-80
2023/10/01 01:01:08;;;;;;;12.30;6.38;;;5.00;99.90;;;;;;5070921;28;20021;-86
2023/10/01 01:03:35;;;;;;;29.92;7.50;;;5.00;99.90;;;;;;5080713;28;20016;-80
2023/10/01 01:08:33;;;;;;;20.88;7.55;;;5.00;99.90;;;;;;5096573;28;20028;-86
2023/10/01 01:11:03;;;;;;;14.73;6.30;;;5.00;99.90;;;;;;5076074;28;20466;-86
2023/10/01 01:13:30;;;;;;;23.00;7.93;;;5.00;99.90;;;;;;5089466;28;20020;-80
2023/10/01 01:16:00;;;;;;;13.35;6.10;;;5.00;99.90;;;;;;5095343;28;20127;-80
2023/10/01 01:18:27;;;;;;;23.48;6.82;;;4.90;99.90;;;;;;5084138;28;20028;-86
2023/10/01 01:21:05;;;;;;;19.08;7.07;;;4.80;99.90;;;;;;5094942;28;20516;-86
2023/10/01 01:23:31;;;;;;;9.15;5.72;;;4.70;99.90;;;;;;5094055;28;20024;-85
2023/10/01 01:25:57;;;;;;;10.35;5.93;;;4.70;99.90;;;;;;5095957;28;20845;-80
2023/10/01 01:28:32;;;;;;;28.85;9.70;;;4.80;99.90;;;;;;5094654;28;20012;-86
2023/10/01 01:31:03;;;;;;;20.02;7.82;;;4.70;99.90;;;;;;5094821;28;20027;-79
2023/10/01 01:33:32;;;;;;;28.67;8.82;;;4.70;99.90;;;;;;5093567;28;20055;-86
2023/10/01 01:36:14;;;;;;;17.45;7.18;;;4.70;99.90;;;;;;5094578;28;20028;-80
2023/10/01 01:39:12;;;;;;;17.27;7.38;;;4.80;99.90;;;;;;5095582;28;20082;-79
2023/10/01 01:41:47;;;;;;;16.85;6.47;;;4.80;99.90;;;;;;5093374;28;20020;-79
2023/10/01 01:44:14;;;;;;;24.13;6.20;;;4.90;99.90;;;;;;5083766;28;20029;-85
2023/10/01 01:46:59;;;;;;;13.57;6.25;;;4.80;99.90;;;;;;5074855;28;20048;-79
2023/10/01 01:49:25;;;;;;;29.15;8.10;;;4.80;99.90;;;;;;5087834;28;20027;-85
2023/10/01 01:51:57;;;;;;;31.63;8.27;;;4.80;99.90;;;;;;5075714;28;20478;-86
2023/10/01 01:54:31;;;;;;;32.55;8.20;;;4.80;99.90;;;;;;5075286;28;20109;-80
2023/10/01 01:56:57;;;;;;;19.08;8.82;;;4.70;99.90;;;;;;5080490;28;20024;-85
2023/10/01 01:59:27;;;;;;;19.83;7.70;;;4.70;99.90;;;;;;5091762;28;20057;-79
2023/10/01 02:01:53;;;;;;;18.98;6.72;;;4.60;99.90;;;;;;5095533;28;20081;-86
2023/10/01 02:04:19;;;;;;;25.40;7.57;;;4.60;99.90;;;;;;5095234;28;20023;-79
2023/10/01 02:06:46;;;;;;;12.85;6.72;;;4.60;99.90;;;;;;5094446;28;20032;-79
2023/10/01 02:09:14;;;;;;;24.30;9.02;;;4.50;99.90;;;;;;5080281;28;20016;-85
2023/10/01 02:11:40;;;;;;;27.25;7.68;;;4.50;99.90;;;;;;5094296;28;20028;-85
2023/10/01 02:14:06;;;;;;;16.75;6.88;;;4.60;99.90;;;;;;5093048;28;20022;-79
2023/10/01 02:19:14;;;;;;;26.23;10.30;;;4.60;99.90;;;;;;5095075;28;20102;-79
2023/10/01 02:21:52;;;;;;;15.80;8.03;;;4.60;99.90;;;;;;5095127;28;20107;-79
2023/10/01 02:24:23;;;;;;;37.17;10.15;;;4.70;99.90;;;;;;5071913;28;20261;-79
2023/10/01 02:26:59;;;;;;;29.60;8.68;;;4.70;99.90;;;;;;5094496;28;20020;-79
2023/10/01 02:29:25;;;;;;;88.20;10.02;;;4.70;99.90;;;;;;5083671;28;20478;-79
2023/10/01 02:31:57;;;;;;;21.10;8.95;;;4.70;99.90;;;;;;5087328;28;20028;-82
2023/10/01 02:34:24;;;;;;;32.75;8.40;;;4.80;99.90;;;;;;5085232;28;20052;-85
2023/10/01 02:36:49;;;;;;;17.77;8.18;;;4.80;99.90;;;;;;5094614;28;20050;-86
2023/10/01 02:39:27;;;;;;;21.90;7.97;;;4.80;99.90;;;;;;5083717;28;20044;-79
2023/10/01 02:44:34;;;;;;;22.20;7.85;;;4.80;99.90;;;;;;5077604;28;20032;-85
2023/10/01 02:47:09;;;;;;;44.40;8.82;;;4.70;99.90;;;;;;5093553;28;20059;-85
2023/10/01 02:49:48;;;;;;;40.50;9.00;;;4.70;99.90;;;;;;5076710;28;20016;-86
2023/10/01 02:52:18;;;;;;;38.92;9.20;;;4.70;99.90;;;;;;5075121;28;20032;-85
2023/10/01 02:54:47;;;;;;;68.72;10.50;;;4.70;99.90;;;;;;5074801;28;20029;-85
2023/10/01 02:57:23;;;;;;;23.40;8.00;;;4.70;99.90;;;;;;5093233;28;20032;-79
2023/10/01 03:02:41;;;;;;;31.27;8.05;;;4.70;99.90;;;;;;5094260;28;20111;-85
2023/10/01 03:05:14;;;;;;;43.83;9.90;;;4.60;99.90;;;;;;5081894;28;20063;-85
2023/10/01 03:07:39;;;;;;;;;;;4.60;99.90;;;;;;5073966;28;20074;-85
2023/10/01 03:10:24;;;;;;;24.35;7.68;;;4.60;99.90;;;;;;5073797;28;19905;-85
2023/10/01 03:12:58;;;;;;;19.27;9.07;;;4.60;99.90;;;;;;5073987;28;20082;-85
2023/10/01 03:15:29;;;;;;;20.67;8.52;;;4.60;99.90;;;;;;5074810;28;20383;-85
2023/10/01 03:18:06;;;;;;;20.77;7.95;;;4.70;99.90;;;;;;5073041;28;20115;-79
2023/10/01 03:25:57;;;;;;;20.70;8.55;;;4.80;99.90;;;;;;5069407;28;20301;-80
2023/10/01 03:28:27;;;;;;;14.43;8.13;;;4.80;99.90;;;;;;5079025;28;20039;-79
2023/10/01 03:31:06;;;;;;;18.95;8.60;;;4.80;99.90;;;;;;5083805;28;20032;-79
2023/10/01 03:33:33;;;;;;;18.95;8.85;;;4.90;99.90;;;;;;5078295;28;20020;-85
2023/10/01 03:35:59;;;;;;;23.20;8.95;;;4.90;99.90;;;;;;5092158;28;20500;-85
2023/10/01 03:38:25;;;;;;;22.02;8.30;;;4.80;99.90;;;;;;5091514;28;20040;-79
2023/10/01 03:41:00;;;;;;;22.73;9.38;;;4.90;99.90;;;;;;5093600;28;20020;-79
2023/10/01 03:43:35;;;;;;;30.55;11.43;;;4.90;99.90;;;;;;5061949;28;20091;-85
2023/10/01 03:46:14;;;;;;;26.42;10.52;;;4.90;99.90;;;;;;5072232;28;20051;-85
2023/10/01 03:54:21;;;;;;;26.38;10.10;;;5.10;99.90;;;;;;5078099;28;20040;-85
2023/10/01 03:56:56;;;;;;;24.80;9.95;;;5.10;99.90;;;;;;5074005;28;20044;-85
2023/10/01 03:59:32;;;;;;;22.90;10.05;;;5.10;99.90;;;;;;5073328;28;20485;-85
2023/10/01 04:01:58;;;;;;;27.23;10.20;;;5.10;99.90;;;;;;5081226;28;20020;-79
2023/10/01 04:04:31;;;;;;;24.25;9.60;;;5.20;99.90;;;;;;5075518;28;20031;-79
2023/10/01 04:07:00;;;;;;;31.73;9.20;;;5.20;99.90;;;;;;5074007;28;20431;-85
2023/10/01 04:09:26;;;;;;;29.67;10.43;;;5.20;99.90;;;;;;5088414;28;20024;-85
2023/10/01 04:14:48;;;;;;;37.10;10.73;;;5.20;99.90;;;;;;5074620;28;20044;-85
2023/10/01 04:17:17;;;;;;;37.65;10.75;;;5.10;99.90;;;;;;5074390;28;20020;-79
2023/10/01 04:19:48;;;;;;;56.75;15.27;;;5.10;99.90;;;;;;5079048;28;20028;-79
2023/10/01 04:22:14;;;;;;;29.98;11.80;;;5.10;99.90;;;;;;5073005;28;20409;-85
2023/10/01 04:24:42;;;;;;;28.63;11.57;;;5.10;99.90;;;;;;5073276;28;20025;-79
2023/10/01 04:27:30;;;;;;;30.90;13.63;;;5.10;99.90;;;;;;5090929;28;20047;-79
2023/10/01 04:29:58;;;;;;;34.33;11.98;;;5.10;99.90;;;;;;5092403;28;20028;-84
2023/10/01 04:32:27;;;;;;;33.63;11.73;;;5.20;99.90;;;;;;5093797;28;20027;-79
2023/10/01 04:35:01;;;;;;;27.20;11.02;;;5.20;99.90;;;;;;5090900;28;20516;-79
2023/10/01 04:37:41;;;;;;;31.38;9.82;;;5.30;99.90;;;;;;5090869;28;20028;-79
2023/10/01 04:42:56;;;;;;;31.45;11.70;;;5.40;99.90;;;;;;5090454;28;20122;-85
2023/10/01 04:45:33;;;;;;;36.53;12.15;;;5.40;99.90;;;;;;5061730;28;20032;-85
2023/10/01 04:48:02;;;;;;;45.38;14.25;;;5.50;99.90;;;;;;5085987;28;20097;-85
2023/10/01 04:50:29;;;;;;;53.10;13.38;;;5.50;99.90;;;;;;5071536;28;20021;-79
2023/10/01 04:52:59;;;;;;;37.45;13.18;;;5.50;99.90;;;;;;5084252;28;20021;-85
2023/10/01 04:55:30;;;;;;;41.25;14.13;;;5.60;99.90;;;;;;5084111;28;20022;-85
2023/10/01 04:57:57;;;;;;;41.50;14.60;;;5.60;99.90;;;;;;5091961;28;20089;-79
2023/10/01 05:00:24;;;;;;;63.85;17.58;;;5.60;99.90;;;;;;5091823;28;20039;-79
2023/10/01 05:02:51;;;;;;;48.70;16.60;;;5.70;99.90;;;;;;5091248;28;20016;-85
2023/10/01 05:05:25;;;;;;;56.58;18.02;;;5.70;99.90;;;;;;5091927;28;20074;-79
2023/10/01 05:07:55;;;;;;;59.30;18.13;;;5.80;99.90;;;;;;5065713;28;20081;-79
2023/10/01 05:10:21;;;;;;;84.63;21.38;;;5.90;99.90;;;;;;5091090;28;20055;-79
2023/10/01 05:12:47;;;;;;;52.42;17.67;;;6.00;99.90;;;;;;5092299;28;20024;-79
2023/10/01 05:15:21;;;;;;;51.53;17.15;;;6.00;99.90;;;;;;5091624;28;20038;-85
2023/10/01 05:17:47;;;;;;;55.80;18.48;;;6.10;99.90;;;;;;5091052;28;20482;-79
2023/10/01 05:20:15;;;;;;;58.15;18.30;;;6.10;99.90;;;;;;5090878;28;20028;-85
2023/10/01 05:22:46;;;;;;;84.13;18.90;;;6.10;99.90;;;;;;5091099;28;20470;-79
2023/10/01 05:25:18;;;;;;;51.22;18.25;;;6.20;99.90;;;;;;5090189;28;20075;-85
2023/10/01 05:27:45;;;;;;;57.50;16.13;;;6.20;99.90;;;;;;5092768;28;20096;-85
2023/10/01 05:32:58;;;;;;;86.57;17.80;;;6.30;99.90;;;;;;5092463;28;20085;-85
2023/10/01 05:35:24;;;;;;;85.03;20.48;;;6.30;99.90;;;;;;5092575;28;20036;-85
2023/10/01 05:37:50;;;;;;;79.65;19.92;;;6.30;99.90;;;;;;5090074;28;20414;-79
2023/10/01 05:40:16;;;;;;;63.88;19.17;;;6.40;99.90;;;;;;5090572;28;20090;-85
2023/10/01 05:42:44;;;;;;;45.67;16.70;;;6.40;99.90;;;;;;5090039;28;20431;-86
2023/10/01 05:45:19;;;;;;;50.33;17.52;;;6.50;99.90;;;;;;5078392;28;20036;-85
2023/10/01 05:47:51;;;;;;;70.53;21.40;;;6.50;99.90;;;;;;5089560;28;20395;-84
2023/10/01 05:50:18;;;;;;;30.60;16.83;;;6.60;99.90;;;;;;5074267;28;20044;-79
2023/10/01 05:52:47;;;;;;;48.08;17.30;;;6.70;99.90;;;;;;5074356;28;20024;-79
2023/10/01 05:55:12;;;;;;;66.40;20.15;;;6.70;99.90;;;;;;5077680;28;20032;-79
2023/10/01 05:57:41;;;;;;;42.60;18.10;;;6.70;99.90;;;;;;5092470;28;20017;-85
2023/10/01 06:00:18;;;;;;;36.60;18.30;;;6.70;99.90;;;;;;5085896;28;20094;-79
2023/10/01 06:02:47;;;;;;;64.55;21.77;;;6.80;99.90;;;;;;5096177;28;20081;-85
2023/10/01 06:05:33;;;;;;;42.63;19.05;;;6.90;99.90;;;;;;5095645;28;20036;-79
2023/10/01 06:08:00;;;;;;;35.78;17.15;;;6.90;99.90;;;;;;5072017;28;20057;-85
2023/10/01 06:10:35;;;;;;;44.00;18.88;;;7.00;99.90;;;;;;5093579;28;20012;-85
2023/10/01 06:13:06;;;;;;;51.10;19.90;;;7.00;99.90;;;;;;5094052;28;20089;-79
2023/10/01 06:15:33;;;;;;;40.53;18.10;;;7.00;99.90;;;;;;5093838;28;20015;-85
2023/10/01 06:18:00;;;;;;;46.17;21.05;;;7.10;99.90;;;;;;5095231;28;20055;-79
2023/10/01 06:20:27;;;;;;;47.75;20.80;;;7.10;99.90;;;;;;5091524;28;20016;-79
2023/10/01 06:22:55;;;;;;;44.05;19.38;;;7.10;99.90;;;;;;5074072;28;20023;-85
2023/10/01 06:25:37;;;;;;;50.75;19.75;;;7.10;99.90;;;;;;5078890;28;20062;-79
2023/10/01 06:28:07;;;;;;;52.13;21.90;;;7.20;99.90;;;;;;5082580;28;20462;-79
2023/10/01 06:30:34;;;;;;;50.67;21.15;;;7.20;99.90;;;;;;5074492;28;20055;-79
2023/10/01 06:32:59;;;;;;;39.65;19.27;;;7.30;99.90;;;;;;5074760;28;20024;-79
2023/10/01 06:35:26;;;;;;;51.90;21.88;;;7.30;99.90;;;;;;5081254;28;20036;-79
2023/10/01 06:37:53;;;;;;;40.88;18.92;;;7.30;99.90;;;;;;5074425;28;20017;-79
2023/10/01 06:40:31;;;;;;;45.33;21.08;;;7.40;99.90;;;;;;5074528;28;20509;-79
2023/10/01 06:43:01;;;;;;;40.25;19.48;;;7.40;99.90;;;;;;5076814;28;20035;-85
2023/10/01 06:45:39;;;;;;;50.00;21.00;;;7.50;99.90;;;;;;5085524;28;20036;-85
2023/10/01 06:48:14;;;;;;;44.70;21.17;;;7.50;99.90;;;;;;5074994;28;20021;-86
2023/10/01 06:50:43;;;;;;;40.70;20.83;;;7.60;99.90;;;;;;5074240;28;20025;-86
2023/10/01 06:53:09;;;;;;;41.70;21.40;;;7.70;99.90;;;;;;5074151;28;20470;-79
2023/10/01 06:55:36;;;;;;;48.08;23.83;;;7.70;99.90;;;;;;5073893;28;20044;-86
2023/10/01 06:58:06;;;;;;;43.50;21.50;;;7.80;99.90;;;;;;5074479;28;20113;-79
2023/10/01 07:00:35;;;;;;;44.40;22.55;;;7.90;99.90;;;;;;5074968;28;20032;-86
2023/10/01 07:03:18;;;;;;;47.50;23.67;;;8.00;99.90;;;;;;5084565;28;20020;-86
2023/10/01 07:05:51;;;;;;;48.13;24.35;;;8.00;99.90;;;;;;5087113;28;20036;-80
2023/10/01 07:08:18;;;;;;;48.20;24.15;;;8.10;99.90;;;;;;5075214;28;20016;-86
2023/10/01 07:10:50;;;;;;;51.40;25.33;;;8.10;99.90;;;;;;5077534;28;20016;-79
2023/10/01 07:13:17;;;;;;;47.53;25.13;;;8.20;99.90;;;;;;5073518;28;20023;-79
2023/10/01 07:15:43;;;;;;;47.60;24.58;;;8.20;99.90;;;;;;5075197;28;20490;-79
2023/10/01 07:18:15;;;;;;;53.55;27.30;;;8.30;99.90;;;;;;5073703;28;20031;-85
2023/10/01 07:20:44;;;;;;;53.60;25.52;;;8.30;99.90;;;;;;5081951;28;20031;-79
2023/10/01 07:23:13;;;;;;;53.90;27.60;;;8.40;99.90;;;;;;5073358;28;20070;-86
2023/10/01 07:25:42;;;;;;;52.20;26.70;;;8.50;99.90;;;;;;5074500;28;20042;-80
2023/10/01 07:28:12;;;;;;;53.63;27.17;;;8.60;99.90;;;;;;5075020;28;20504;-86
2023/10/01 07:30:45;;;;;;;50.50;23.65;;;8.60;99.90;;;;;;5073420;28;20032;-79
2023/10/01 07:33:23;;;;;;;51.15;25.13;;;8.70;99.90;;;;;;5074706;28;20027;-86
2023/10/01 07:35:58;;;;;;;55.67;25.70;;;8.70;99.90;;;;;;5082236;28;20115;-79
2023/10/01 07:38:26;;;;;;;47.85;24.02;;;8.80;99.90;;;;;;5079366;28;20533;-86
2023/10/01 07:40:57;;;;;;;51.83;25.77;;;8.90;99.90;;;;;;5073501;28;20024;-79
2023/10/01 07:43:26;;;;;;;47.72;24.15;;;8.90;99.90;;;;;;5073131;28;20024;-79
2023/10/01 07:45:57;;;;;;;43.70;23.35;;;8.90;99.90;;;;;;5072644;28;20071;-79
2023/10/01 07:48:24;;;;;;;41.58;23.33;;;9.00;99.90;;;;;;5072517;28;20024;-79
2023/10/01 07:50:53;;;;;;;45.67;24.63;;;9.10;99.90;;;;;;5073757;28;20111;-79
2023/10/01 07:53:20;;;;;;;42.10;23.20;;;9.10;99.90;;;;;;5076399;28;20020;-86
2023/10/01 07:55:48;;;;;;;44.05;24.60;;;9.20;99.90;;;;;;5072090;28;20021;-86
2023/10/01 07:58:25;;;;;;;47.75;23.92;;;9.20;99.90;;;;;;5072169;28;20028;-86
2023/10/01 08:01:32;;;;;;;40.13;22.02;;;9.30;99.90;;;;;;5073914;28;20032;-79
2023/10/01 08:03:55;;;;;;;45.67;23.30;;;9.40;99.90;;;;;;5067318;28;20028;-86
2023/10/01 08:06:29;;;;;;;40.90;24.73;;;9.40;99.90;;;;;;5074450;28;20028;-85
2023/10/01 08:08:59;;;;;;;39.97;22.42;;;9.50;99.90;;;;;;5073868;28;20029;-85
2023/10/01 08:14:12;;;;;;;35.88;20.63;;;9.70;99.90;;;;;;5073900;28;20036;-86
2023/10/01 08:16:48;;;;;;;36.75;20.52;;;9.70;99.90;;;;;;5079445;28;20021;-79
2023/10/01 08:19:15;;;;;;;34.15;20.50;;;9.80;99.90;;;;;;5073334;28;20009;-85
2023/10/01 08:21:48;;;;;;;40.50;22.35;;;9.80;99.90;;;;;;5073581;28;20028;-86
2023/10/01 08:24:18;;;;;;;46.08;24.10;;;10.00;99.90;;;;;;5072069;28;20108;-86
2023/10/01 08:27:12;;;;;;;44.53;23.23;;;10.10;99.90;;;;;;5073487;28;20123;-85
2023/10/01 08:32:22;;;;;;;43.80;22.95;;;10.30;99.90;;;;;;5063001;28;20058;-79
2023/10/01 08:35:09;;;;;;;44.53;24.63;;;10.40;99.90;;;;;;5073463;28;20025;-79
2023/10/01 08:37:37;;;;;;;48.78;25.02;;;10.50;99.90;;;;;;5078145;28;20028;-86
2023/10/01 08:40:27;;;;;;;37.33;20.88;;;10.60;99.90;;;;;;5073706;28;20044;-79
2023/10/01 08:42:58;;;;;;;43.28;23.83;;;10.70;99.90;;;;;;5074320;28;20020;-79
2023/10/01 08:45:37;;;;;;;39.72;21.55;;;10.80;99.90;;;;;;5073077;28;20478;-86
2023/10/01 08:48:05;;;;;;;43.67;21.60;;;10.80;99.90;;;;;;5085019;28;20055;-79
2023/10/01 08:50:36;;;;;;;43.83;23.77;;;10.90;99.90;;;;;;5071833;28;20024;-80
2023/10/01 08:53:09;;;;;;;35.08;22.65;;;10.90;99.90;;;;;;5072162;28;20017;-86
2023/10/01 08:55:39;;;;;;;42.83;22.40;;;11.00;99.90;;;;;;5078744;28;20016;-79
2023/10/01 08:58:15;;;;;;;38.40;23.73;;;11.00;99.90;;;;;;5073069;28;20367;-86
2023/10/01 09:00:56;;;;;;;44.47;22.88;;;11.10;99.90;;;;;;5073658;28;20024;-87
2023/10/01 09:03:28;;;;;;;41.67;22.58;;;11.10;99.90;;;;;;5072914;28;20077;-86
2023/10/01 09:06:04;;;;;;;37.03;23.27;;;11.20;99.90;;;;;;5073723;28;20031;-80
2023/10/01 09:08:42;;;;;;;45.53;22.80;;;11.30;99.90;;;;;;5073218;28;20409;-79
2023/10/01 09:11:15;;;;;;;36.30;23.13;;;11.30;99.90;;;;;;5072794;28;20115;-80
2023/10/01 09:14:25;;;;;;;38.25;22.35;;;11.40;99.90;;;;;;5074018;28;20389;-80
2023/10/01 09:16:56;;;;;;;40.35;22.27;;;11.50;99.90;;;;;;5079795;28;20506;-86
2023/10/01 09:19:30;;;;;;;40.25;23.75;;;11.50;99.90;;;;;;5063596;28;20032;-86
2023/10/01 09:22:04;;;;;;;35.83;18.90;;;11.60;99.90;;;;;;5073477;28;20492;-87
2023/10/01 09:24:39;;;;;;;43.70;22.42;;;11.70;99.90;;;;;;5066174;28;20023;-80
2023/10/01 09:27:09;;;;;;;45.83;23.50;;;11.80;99.90;;;;;;5077589;28;20035;-87
2023/10/01 09:29:43;;;;;;;38.67;23.80;;;11.80;99.90;;;;;;5075966;28;20017;-86
2023/10/01 09:32:13;;;;;;;35.30;22.70;;;11.90;99.90;;;;;;5067351;28;20028;-86
2023/10/01 09:34:53;;;;;;;42.10;22.95;;;12.00;99.90;;;;;;5076563;28;20107;-80
2023/10/01 09:37:35;;;;;;;37.72;22.40;;;12.10;99.90;;;;;;5077259;28;20074;-79
2023/10/01 09:40:32;;;;;;;35.70;22.77;;;12.10;99.90;;;;;;5077196;28;20060;-80
2023/10/01 09:43:04;;;;;;;40.22;23.33;;;12.30;99.90;;;;;;5076943;28;20025;-86
2023/10/01 09:45:37;;;;;;;34.03;20.35;;;12.40;99.90;;;;;;5087493;28;20545;-80
2023/10/01 09:48:04;;;;;;;34.28;20.10;;;12.50;99.90;;;;;;5094833;28;20517;-86
2023/10/01 09:50:42;;;;;;;33.80;21.27;;;12.60;99.90;;;;;;5095211;28;20024;-87
2023/10/01 09:53:12;;;;;;;32.63;20.42;;;12.70;99.90;;;;;;5095640;28;20016;-79
2023/10/01 09:55:56;;;;;;;36.63;19.70;;;12.80;99.90;;;;;;5095912;28;20028;-86
2023/10/01 09:58:27;;;;;;;36.63;19.35;;;12.90;99.90;;;;;;5073515;28;20043;-86
2023/10/01 10:01:08;;;;;;;32.75;18.20;;;13.00;99.90;;;;;;5093472;28;20020;-86
2023/10/01 10:03:36;;;;;;;36.30;18.17;;;13.00;99.90;;;;;;5094621;28;20031;-86
2023/10/01 10:06:09;;;;;;;34.78;19.42;;;13.10;99.90;;;;;;5093727;28;20028;-87
2023/10/01 10:08:36;;;;;;;38.80;19.00;;;13.10;99.90;;;;;;5096218;28;20055;-86
2023/10/01 10:11:08;;;;;;;31.75;18.30;;;13.20;99.90;;;;;;5094447;28;20031;-86
2023/10/01 10:13:45;;;;;;;37.17;21.42;;;13.40;99.90;;;;;;5094134;28;20020;-86
2023/10/01 10:19:11;;;;;;;35.55;18.08;;;13.50;99.90;;;;;;5095102;28;20127;-80
2023/10/01 10:24:35;;;;;;;35.08;18.83;;;13.80;99.90;;;;;;5088613;28;20027;-80
2023/10/01 10:27:06;;;;;;;42.20;18.52;;;14.00;99.90;;;;;;5082216;28;20393;-86
2023/10/01 10:29:56;;;;;;;36.45;19.92;;;14.20;99.90;;;;;;5065798;28;20047;-86
2023/10/01 10:32:30;;;;;;;33.63;16.67;;;14.40;99.90;;;;;;5083800;28;20020;-80
2023/10/01 10:35:06;;;;;;;36.60;16.33;;;14.50;99.90;;;;;;5086447;28;20017;-80
2023/10/01 10:37:38;;;;;;;29.10;15.77;;;14.70;99.90;;;;;;5088764;28;20016;-80
2023/10/01 10:40:13;;;;;;;30.05;14.35;;;14.70;99.90;;;;;;5083268;28;20080;-86
2023/10/01 10:42:48;;;;;;;31.48;13.50;;;14.70;99.90;;;;;;5087675;28;20051;-80
2023/10/01 10:45:23;;;;;;;24.25;14.43;;;14.80;99.90;;;;;;5060229;28;20067;-86
2023/10/01 10:48:03;;;;;;;23.13;14.80;;;14.80;99.90;;;;;;5085827;28;20028;-86
2023/10/01 10:50:45;;;;;;;26.23;12.65;;;15.00;99.90;;;;;;5073533;28;20020;-80
2023/10/01 10:53:25;;;;;;;26.27;13.07;;;15.30;99.90;;;;;;5073125;28;20021;-87
2023/10/01 10:56:05;;;;;;;30.33;12.70;;;15.60;99.90;;;;;;5079511;28;20321;-87
2023/10/01 10:58:41;;;;;;;26.55;10.82;;;15.70;99.90;;;;;;5073407;28;20498;-87
2023/10/01 11:01:21;;;;;;;25.40;11.73;;;15.80;99.90;;;;;;5073504;28;20074;-80
2023/10/01 11:04:00;;;;;;;19.17;9.63;;;15.70;99.90;;;;;;5073654;28;20124;-87
2023/10/01 11:06:30;;;;;;;37.08;12.32;;;15.80;99.90;;;;;;5074513;28;20028;-80
2023/10/01 11:08:57;;;;;;;23.50;11.30;;;15.80;99.90;;;;;;5088860;28;20016;-80
2023/10/01 11:11:25;;;;;;;27.20;11.55;;;15.80;99.90;;;;;;5094833;28;20107;-85
2023/10/01 11:14:00;;;;;;;17.48;9.15;;;15.80;99.90;;;;;;5092488;28;20056;-81
2023/10/01 11:16:33;;;;;;;21.55;9.60;;;16.00;99.90;;;;;;5094347;28;20063;-81
2023/10/01 11:19:12;;;;;;;22.67;8.57;;;16.00;99.90;;;;;;5092988;28;20020;-86
2023/10/01 11:21:57;;;;;;;21.50;9.52;;;16.10;99.90;;;;;;5092638;28;20032;-86
2023/10/01 11:24:53;;;;;;;18.52;8.85;;;15.90;99.90;;;;;;5076169;28;20066;-81
2023/10/01 11:27:26;;;;;;;14.30;6.63;;;15.90;99.90;;;;;;5064905;28;20546;-80
2023/10/01 11:30:20;;;;;;;19.23;6.55;;;15.90;99.90;;;;;;5093389;28;20485;-86
2023/10/01 11:35:37;;;;;;;11.30;3.67;;;16.20;99.90;;;;;;5094239;28;20106;-86
2023/10/01 11:38:07;;;;;;;16.40;5.25;;;16.20;99.90;;;;;;5076658;28;20021;-86
2023/10/01 11:43:27;;;;;;;9.20;4.22;;;16.40;99.90;;;;;;5074027;28;20089;-80
2023/10/01 11:46:57;;;;;;;7.97;4.05;;;16.40;99.90;;;;;;5072676;28;20048;-86
2023/10/01 11:49:10;;;;;;;10.52;3.67;;;16.50;99.90;;;;;;5063945;28;20037;-80
2023/10/01 11:51:50;;;;;;;10.50;3.80;;;16.60;99.90;;;;;;5073600;28;20103;-81
2023/10/01 11:54:20;;;;;;;9.52;4.60;;;16.70;99.90;;;;;;5076276;28;20020;-86
2023/10/01 11:57:04;;;;;;;10.43;3.63;;;16.70;98.80;;;;;;5072449;28;20159;-86
2023/10/01 11:59:34;;;;;;;11.77;4.47;;;16.70;99.80;;;;;;5073909;28;20048;-86
2023/10/01 12:02:18;;;;;;;8.13;3.67;;;16.60;96.80;;;;;;5082587;28;20030;-81
2023/10/01 12:04:44;;;;;;;11.10;4.00;;;16.50;95.00;;;;;;5068720;28;20024;-81
2023/10/01 12:07:16;;;;;;;12.85;4.65;;;16.40;95.20;;;;;;5091872;28;20130;-80
2023/10/01 12:09:50;;;;;;;10.32;3.42;;;16.40;94.70;;;;;;5092101;28;20027;-80
2023/10/01 12:12:21;;;;;;;9.05;4.28;;;16.30;92.60;;;;;;5076356;28;20016;-80
2023/10/01 12:14:54;;;;;;;11.38;4.18;;;16.40;95.50;;;;;;5083860;28;20044;-80
2023/10/01 12:17:23;;;;;;;10.05;4.43;;;16.30;96.10;;;;;;5078793;28;20094;-80
2023/10/01 12:20:21;;;;;;;9.70;4.57;;;16.40;98.20;;;;;;5091822;28;20028;-80
2023/10/01 12:23:04;;;;;;;7.40;3.58;;;16.40;95.50;;;;;;5071770;28;20020;-80
2023/10/01 12:25:44;;;;;;;15.50;4.28;;;16.40;97.70;;;;;;5072748;28;20433;-80
2023/10/01 12:28:15;;;;;;;10.80;4.05;;;16.40;97.70;;;;;;5073775;28;20421;-80
2023/10/01 12:30:41;;;;;;;9.45;4.00;;;16.40;93.90;;;;;;5080458;28;20389;-81
2023/10/01 12:33:07;;;;;;;11.27;4.40;;;16.40;96.90;;;;;;5092635;28;20415;-80
2023/10/01 12:35:34;;;;;;;8.35;4.25;;;16.60;99.80;;;;;;5091853;28;20062;-80
2023/10/01 12:40:49;;;;;;;8.57;3.15;;;16.50;96.20;;;;;;5092904;28;20024;-81
2023/10/01 12:46:18;;;;;;;7.13;2.63;;;16.30;89.70;;;;;;5050132;28;20040;-80
2023/10/01 12:51:33;;;;;;;6.20;2.60;;;16.10;90.50;;;;;;5064341;28;20040;-80
2023/10/01 12:54:00;;;;;;;6.55;3.05;;;16.10;92.00;;;;;;5072986;28;20428;-80
2023/10/01 12:56:44;;;;;;;8.13;3.28;;;16.10;92.40;;;;;;5073146;28;20021;-80
2023/10/01 12:59:19;;;;;;;9.77;3.08;;;16.20;91.90;;;;;;5073704;28;20470;-80
2023/10/01 13:01:52;;;;;;;6.38;2.90;;;16.20;91.00;;;;;;5078572;28;20105;-85
2023/10/01 13:04:22;;;;;;;14.38;6.00;;;16.30;88.80;;;;;;5078971;28;20157;-80
2023/10/01 13:06:50;;;;;;;12.73;9.43;;;16.50;89.50;;;;;;5081253;28;20040;-86
2023/10/01 13:12:39;;;;;;;8.10;4.55;;;16.60;88.40;;;;;;5068099;28;20081;-85
2023/10/01 13:17:43;;;;;;;20.20;17.38;;;16.60;88.80;;;;;;5061486;28;20031;-80
2023/10/01 13:20:22;;;;;;;20.65;10.07;;;16.70;88.10;;;;;;5072672;28;20020;-81
2023/10/01 13:22:48;;;;;;;35.90;13.63;;;16.70;86.50;;;;;;5073034;28;20074;-81
2023/10/01 13:25:23;;;;;;;7.25;3.05;;;16.70;88.30;;;;;;5072484;28;20066;-85
2023/10/01 13:28:04;;;;;;;9.75;3.63;;;16.70;86.10;;;;;;5072003;28;20020;-81
2023/10/01 13:33:25;;;;;;;13.95;7.32;;;16.60;83.10;;;;;;5073816;28;20036;-85
2023/10/01 13:35:57;;;;;;;14.35;4.55;;;16.60;84.90;;;;;;5073242;28;20032;-83
2023/10/01 14:08:43;;;;;;;9.60;4.40;;;16.60;83.70;;;;;;5073337;28;20032;-81
2023/10/01 14:08:43;;;;;;;5.68;1.92;;;16.60;81.90;;;;;;5060707;28;20120;-80
2023/10/01 14:11:10;;;;;;;6.72;2.47;;;16.50;81.00;;;;;;5062290;28;20013;-80
2023/10/01 14:13:36;;;;;;;7.57;2.67;;;16.60;82.70;;;;;;5066506;28;20078;-80
2023/10/01 14:16:11;;;;;;;12.95;6.50;;;16.70;85.10;;;;;;5075162;28;20027;-80
2023/10/01 14:18:53;;;;;;;9.27;3.63;;;16.70;84.40;;;;;;5075214;28;20021;-80
2023/10/01 14:21:22;;;;;;;12.45;5.57;;;16.70;81.90;;;;;;5072356;28;20114;-79
2023/10/01 14:23:52;;;;;;;6.45;2.72;;;16.70;82.30;;;;;;5073071;28;20020;-79
2023/10/01 14:26:26;;;;;;;23.98;11.10;;;16.70;80.20;;;;;;5077737;28;20029;-81
2023/10/01 14:28:55;;;;;;;18.10;7.97;;;16.80;82.00;;;;;;5073624;28;20028;-80
2023/10/01 14:34:07;;;;;;;5.40;2.75;;;16.90;84.40;;;;;;5056647;28;20036;-78
2023/10/01 14:36:34;;;;;;;9.23;3.72;;;17.00;83.10;;;;;;5071998;28;20016;-79